Time;durP1;ratioP1;P1;durP2;ratioP2;P2;SDS_P1;SDS_P2;PMS_P1;PMS_P2;Temp;Humidity;BMP_temperature;BMP_pressure;BME280_temperature;BME280_humidity;BME280_pressure;Samples;Min_cycle;Max_cycle;Signal;HPM_P1;HPM_P2
2023/06/08 00:02:17;;;;;;;6.25;3.85;;;;;;;16.55;62.42;101733.75;5057582;28;20016;-79
2023/06/08 00:04:44;;;;;;;7.40;3.90;;;;;;;16.53;62.64;101728.56;5057190;28;20075;-80
2023/06/08 00:07:14;;;;;;;6.90;3.85;;;;;;;16.50;62.51;101733.94;5047041;28;20393;-79
2023/06/08 00:09:41;;;;;;;8.07;4.22;;;;;;;16.48;62.52;101733.13;5057346;28;20099;-79
2023/06/08 00:12:06;;;;;;;7.25;4.00;;;;;;;16.46;62.57;101737.56;5055295;28;20077;-79
2023/06/08 00:14:36;;;;;;;7.80;4.07;;;;;;;16.45;62.62;101740.28;5054130;28;20196;-79
2023/06/08 00:17:03;;;;;;;6.95;4.28;;;;;;;16.42;62.74;101733.34;5052761;28;20032;-79
2023/06/08 00:19:33;;;;;;;7.15;4.10;;;;;;;16.39;62.88;101733.47;5055890;28;20029;-79
2023/06/08 00:21:59;;;;;;;7.80;4.32;;;;;;;16.35;63.29;101737.94;5054122;28;20031;-79
2023/06/08 00:24:25;;;;;;;8.65;4.55;;;;;;;16.32;63.69;101738.06;5065840;28;20028;-79
2023/06/08 00:26:51;;;;;;;9.93;4.00;;;;;;;16.30;63.63;101736.41;5053556;28;20032;-79
2023/06/08 00:29:16;;;;;;;8.50;4.47;;;;;;;16.28;63.80;101727.72;5056001;28;20021;-79
2023/06/08 00:31:41;;;;;;;9.05;4.47;;;;;;;16.26;63.60;101726.91;5054739;28;20468;-79
2023/06/08 00:34:07;;;;;;;9.93;4.55;;;;;;;16.23;63.57;101728.75;5053296;28;20033;-79
2023/06/08 00:36:32;;;;;;;10.15;4.32;;;;;;;16.21;63.81;101725.34;5052380;28;20621;-79
2023/06/08 00:38:57;;;;;;;8.80;4.57;;;;;;;16.20;64.05;101730.63;5053773;28;20064;-79
2023/06/08 00:41:22;;;;;;;8.45;4.40;;;;;;;16.20;64.00;101728.88;5057159;28;20020;-80
2023/06/08 00:43:48;;;;;;;7.07;4.20;;;;;;;16.19;64.00;101721.91;5060942;28;20104;-79
2023/06/08 00:46:14;;;;;;;7.97;4.50;;;;;;;16.18;64.31;101714.94;5056837;28;20029;-79
2023/06/08 00:48:40;;;;;;;9.50;4.70;;;;;;;16.14;64.02;101721.19;5056094;28;20044;-79
2023/06/08 00:51:06;;;;;;;8.43;4.55;;;;;;;16.11;64.33;101713.44;5055704;28;20025;-79
2023/06/08 00:53:32;;;;;;;10.82;4.63;;;;;;;16.07;64.51;101714.44;5052715;28;20025;-80
2023/06/08 00:55:58;;;;;;;7.47;4.45;;;;;;;16.03;64.61;101712.84;5055434;28;20059;-79
2023/06/08 00:58:25;;;;;;;8.77;4.85;;;;;;;15.99;64.59;101704.22;5057169;28;20033;-79
2023/06/08 01:00:52;;;;;;;9.10;4.47;;;;;;;15.93;64.76;101704.44;5053121;28;20024;-79
2023/06/08 01:03:19;;;;;;;9.88;4.60;;;;;;;15.88;65.00;101704.59;5054508;28;20017;-79
2023/06/08 01:05:45;;;;;;;8.27;4.50;;;;;;;15.84;64.93;101709.94;5057038;28;20356;-79
2023/06/08 01:08:20;;;;;;;7.00;4.13;;;;;;;15.80;64.50;101698.72;5053528;28;20112;-79
2023/06/08 01:11:02;;;;;;;8.80;4.50;;;;;;;15.73;64.67;101702.44;5057804;28;20124;-79
2023/06/08 01:13:37;;;;;;;8.50;4.53;;;;;;;15.69;65.14;101706.09;5056394;28;20025;-79
2023/06/08 01:16:03;;;;;;;8.63;4.85;;;;;;;15.65;65.71;101701.84;5055124;28;20610;-79
2023/06/08 01:18:38;;;;;;;9.77;4.38;;;;;;;15.60;65.82;101700.22;5051996;28;20032;-79
2023/06/08 01:21:24;;;;;;;8.13;4.63;;;;;;;15.59;65.25;101702.94;5048163;28;20025;-80
2023/06/08 01:24:13;;;;;;;8.52;4.28;;;;;;;15.56;64.64;101705.63;5052559;28;20025;-80
2023/06/08 01:26:49;;;;;;;8.70;4.00;;;;;;;15.53;65.55;101703.13;5054637;28;21063;-79
2023/06/08 01:29:15;;;;;;;10.77;4.72;;;;;;;15.48;65.78;101704.13;5055345;28;20043;-81
2023/06/08 01:31:41;;;;;;;9.18;4.50;;;;;;;15.48;65.93;101698.03;5057410;28;20100;-79
2023/06/08 01:34:09;;;;;;;10.95;4.50;;;;;;;15.45;65.95;101699.00;5053058;28;20028;-79
2023/06/08 01:36:41;;;;;;;7.47;4.13;;;;;;;15.43;65.63;101699.94;5058034;28;20028;-80
2023/06/08 01:39:23;;;;;;;8.48;4.20;;;;;;;15.39;65.06;101700.94;5056328;28;20035;-80
2023/06/08 01:41:51;;;;;;;10.73;4.28;;;;;;;15.35;66.50;101701.97;5056684;28;20505;-80
2023/06/08 01:44:20;;;;;;;8.30;4.57;;;;;;;15.30;66.72;101697.72;5055922;28;20031;-79
2023/06/08 01:46:54;;;;;;;9.00;4.90;;;;;;;15.26;66.32;101698.72;5053716;28;20017;-79
2023/06/08 01:49:22;;;;;;;8.38;4.22;;;;;;;15.21;67.27;101699.75;5060705;28;20169;-80
2023/06/08 01:51:47;;;;;;;8.02;4.35;;;;;;;15.19;67.26;101691.97;5053491;28;20040;-79
2023/06/08 01:54:13;;;;;;;9.90;4.50;;;;;;;15.16;67.24;101689.44;5055670;28;20028;-79
2023/06/08 01:56:39;;;;;;;11.05;4.32;;;;;;;15.15;67.12;101687.72;5053851;28;20376;-79
2023/06/08 01:59:04;;;;;;;9.95;4.90;;;;;;;15.15;67.16;101685.09;5058309;28;20025;-79
2023/06/08 02:01:30;;;;;;;9.55;4.47;;;;;;;15.11;67.35;101683.47;5058322;28;20025;-79
2023/06/08 02:03:55;;;;;;;10.27;4.47;;;;;;;15.07;67.57;101679.22;5061699;28;20028;-79
2023/06/08 02:06:20;;;;;;;12.25;4.53;;;;;;;15.02;68.36;101680.25;5056523;28;20031;-79
2023/06/08 02:08:46;;;;;;;8.05;4.72;;;;;;;14.98;67.99;101678.63;5057666;28;20075;-79
2023/06/08 02:11:11;;;;;;;9.73;4.40;;;;;;;14.93;67.95;101675.28;5053760;28;20051;-79
2023/06/08 02:13:44;;;;;;;9.88;5.07;;;;;;;14.89;67.54;101678.88;5055969;28;20472;-79
2023/06/08 02:16:10;;;;;;;10.25;4.57;;;;;;;14.87;68.35;101673.69;5040591;28;20037;-79
2023/06/08 02:18:40;;;;;;;9.38;4.88;;;;;;;14.83;68.11;101679.09;5055775;28;20344;-79
2023/06/08 02:21:07;;;;;;;8.57;4.50;;;;;;;14.81;68.24;101680.88;5057862;28;20021;-79
2023/06/08 02:23:32;;;;;;;8.20;4.78;;;;;;;14.78;68.20;101683.59;5055239;28;20021;-79
2023/06/08 02:25:58;;;;;;;8.48;4.85;;;;;;;14.75;68.34;101675.81;5057131;28;20033;-79
2023/06/08 02:28:23;;;;;;;7.45;4.07;;;;;;;14.69;68.31;101671.63;5058105;28;20113;-79
2023/06/08 02:30:48;;;;;;;10.30;4.40;;;;;;;14.66;68.55;101680.41;5056863;28;20112;-79
2023/06/08 02:33:14;;;;;;;11.18;4.28;;;;;;;14.62;68.75;101676.16;5062804;28;20188;-79
2023/06/08 02:35:39;;;;;;;9.77;5.00;;;;;;;14.60;68.86;101683.22;5054325;28;20193;-79
2023/06/08 02:38:05;;;;;;;8.65;5.03;;;;;;;14.59;68.80;101681.50;5056230;28;20029;-79
2023/06/08 02:40:31;;;;;;;10.57;5.20;;;;;;;14.53;69.31;101682.53;5070379;28;20440;-79
2023/06/08 02:42:56;;;;;;;8.65;4.90;;;;;;;14.49;69.04;101680.88;5060661;28;20085;-79
2023/06/08 02:45:21;;;;;;;11.23;4.93;;;;;;;14.46;69.23;101682.75;5056342;28;20081;-79
2023/06/08 02:47:47;;;;;;;11.00;4.95;;;;;;;14.44;69.29;101679.31;5055943;28;20021;-79
2023/06/08 02:50:12;;;;;;;11.50;4.90;;;;;;;14.41;69.43;101691.59;5069405;28;20023;-79
2023/06/08 02:52:37;;;;;;;11.30;5.13;;;;;;;14.38;69.68;101675.97;5061147;28;20078;-79
2023/06/08 02:55:03;;;;;;;11.95;4.85;;;;;;;14.36;69.63;101679.53;5061764;28;20032;-79
2023/06/08 02:57:28;;;;;;;9.65;5.00;;;;;;;14.33;69.55;101674.38;5054193;28;20040;-79
2023/06/08 02:59:54;;;;;;;11.75;5.28;;;;;;;14.30;69.64;101672.72;5061400;28;20396;-79
2023/06/08 03:02:19;;;;;;;9.27;4.63;;;;;;;14.27;69.73;101680.66;5056610;28;20464;-80
2023/06/08 03:04:45;;;;;;;9.05;4.85;;;;;;;14.24;69.74;101676.38;5059756;28;20056;-79
2023/06/08 03:07:15;;;;;;;11.05;4.95;;;;;;;14.21;69.91;101680.81;5062158;28;20103;-79
2023/06/08 03:09:41;;;;;;;10.75;5.07;;;;;;;14.19;69.83;101678.25;5064749;28;20051;-79
2023/06/08 03:12:08;;;;;;;12.00;4.80;;;;;;;14.17;70.02;101664.34;5058195;28;20024;-79
2023/06/08 03:14:34;;;;;;;10.98;4.90;;;;;;;14.14;70.12;101674.88;5067754;28;20250;-79
2023/06/08 03:17:03;;;;;;;10.20;4.78;;;;;;;14.11;69.90;101665.38;5057893;28;20037;-79
2023/06/08 03:19:30;;;;;;;8.98;4.88;;;;;;;14.07;70.25;101666.34;5053216;28;20032;-79
2023/06/08 03:22:00;;;;;;;9.88;4.68;;;;;;;14.05;70.31;101670.75;5065925;28;20451;-79
2023/06/08 03:24:28;;;;;;;9.48;4.68;;;;;;;14.02;70.41;101663.00;5060809;28;20087;-79
2023/06/08 03:26:55;;;;;;;9.05;4.82;;;;;;;14.01;70.37;101663.03;5042723;28;20032;-79
2023/06/08 03:29:21;;;;;;;9.98;5.13;;;;;;;13.98;70.17;101664.00;5046229;28;20482;-79
2023/06/08 03:31:46;;;;;;;10.95;4.97;;;;;;;13.96;69.75;101671.03;5060763;28;20032;-79
2023/06/08 03:34:11;;;;;;;11.18;4.88;;;;;;;13.96;70.20;101669.25;5059838;28;20390;-79
2023/06/08 03:36:38;;;;;;;8.85;4.95;;;;;;;13.95;70.29;101672.75;5045685;28;20021;-79
2023/06/08 03:39:04;;;;;;;9.95;5.38;;;;;;;13.92;70.36;101674.59;5056573;28;20035;-80
2023/06/08 03:41:29;;;;;;;7.88;5.00;;;;;;;13.92;70.43;101675.44;5057404;28;20594;-79
2023/06/08 03:43:55;;;;;;;10.63;4.97;;;;;;;13.92;70.26;101679.84;5058395;28;20059;-80
2023/06/08 03:46:20;;;;;;;8.88;4.88;;;;;;;13.90;70.09;101676.41;5060176;28;20053;-79
2023/06/08 03:48:46;;;;;;;9.15;4.80;;;;;;;13.88;70.54;101676.47;5058563;28;20032;-79
2023/06/08 03:51:11;;;;;;;11.35;4.65;;;;;;;13.85;70.82;101679.16;5045319;28;20024;-79
2023/06/08 03:53:36;;;;;;;8.95;5.07;;;;;;;13.84;70.77;101682.66;5059090;28;20094;-79
2023/06/08 03:56:02;;;;;;;9.95;5.00;;;;;;;13.82;70.81;101676.59;5062789;28;20106;-79
2023/06/08 03:58:27;;;;;;;12.40;5.45;;;;;;;13.78;70.73;101678.44;5057248;28;20032;-79
2023/06/08 04:00:53;;;;;;;12.13;5.20;;;;;;;13.77;71.23;101681.97;5054958;28;20506;-80
2023/06/08 04:03:20;;;;;;;9.25;4.75;;;;;;;13.75;71.08;101675.91;5053931;28;20115;-79
2023/06/08 04:05:45;;;;;;;8.60;5.15;;;;;;;13.72;71.01;101683.81;5055805;28;20020;-79
2023/06/08 04:08:10;;;;;;;7.13;4.90;;;;;;;13.71;71.05;101674.25;5056906;28;20009;-79
2023/06/08 04:10:35;;;;;;;7.72;4.80;;;;;;;13.68;70.99;101666.50;5057271;28;20518;-79
2023/06/08 04:13:01;;;;;;;8.98;5.03;;;;;;;13.68;71.28;101681.34;5053038;28;20091;-79
2023/06/08 04:15:26;;;;;;;11.23;5.78;;;;;;;13.64;71.32;101673.56;5057626;28;20024;-79
2023/06/08 04:17:52;;;;;;;10.18;5.53;;;;;;;13.62;71.46;101677.97;5057763;28;20025;-79
2023/06/08 04:20:17;;;;;;;9.95;5.30;;;;;;;13.60;71.78;101668.47;5056293;28;20048;-79
2023/06/08 04:22:43;;;;;;;12.77;5.68;;;;;;;13.59;71.48;101671.97;5055675;28;20036;-79
2023/06/08 04:25:08;;;;;;;9.32;5.80;;;;;;;13.57;71.61;101668.53;5058118;28;20033;-79
2023/06/08 04:27:34;;;;;;;10.80;5.65;;;;;;;13.57;71.61;101669.41;5053832;28;20016;-79
2023/06/08 04:30:00;;;;;;;11.05;5.13;;;;;;;13.57;71.64;101671.16;5063988;28;20020;-81
2023/06/08 04:32:26;;;;;;;11.20;6.00;;;;;;;13.58;71.64;101672.84;5049911;28;20074;-79
2023/06/08 04:34:51;;;;;;;12.40;6.05;;;;;;;13.56;71.98;101669.41;5058388;28;20392;-79
2023/06/08 04:37:17;;;;;;;12.02;5.75;;;;;;;13.57;72.15;101668.53;5052690;28;20025;-79
2023/06/08 04:39:42;;;;;;;10.90;5.90;;;;;;;13.58;72.06;101670.25;5057771;28;20454;-79
2023/06/08 04:42:08;;;;;;;11.52;6.13;;;;;;;13.60;71.83;101671.91;5063255;28;20024;-79
2023/06/08 04:44:34;;;;;;;9.80;5.40;;;;;;;13.61;72.01;101671.03;5054425;28;20020;-79
2023/06/08 04:47:00;;;;;;;8.60;5.55;;;;;;;13.63;72.14;101674.47;5062917;28;20463;-80
2023/06/08 04:49:31;;;;;;;11.45;5.82;;;;;;;13.62;72.30;101666.66;5056599;28;20104;-79
2023/06/08 04:51:59;;;;;;;9.88;5.47;;;;;;;13.65;72.09;101661.38;5060167;28;20495;-79
2023/06/08 04:54:26;;;;;;;8.80;5.38;;;;;;;13.64;72.00;101667.50;5059481;28;20467;-79
2023/06/08 04:56:53;;;;;;;10.90;5.60;;;;;;;13.65;71.93;101664.81;5061158;28;20030;-79
2023/06/08 04:59:21;;;;;;;8.80;5.35;;;;;;;13.67;71.57;101672.63;5047463;28;20034;-79
2023/06/08 05:01:46;;;;;;;10.38;5.35;;;;;;;13.70;72.28;101664.69;5058074;28;20059;-79
2023/06/08 05:04:12;;;;;;;12.48;5.75;;;;;;;13.71;72.01;101661.19;5043761;28;20017;-79
2023/06/08 05:06:39;;;;;;;9.43;5.75;;;;;;;13.74;72.21;101662.88;5057904;28;20020;-79
2023/06/08 05:09:04;;;;;;;11.10;5.55;;;;;;;13.76;71.94;101661.94;5054471;28;20033;-79
2023/06/08 05:11:29;;;;;;;11.65;6.10;;;;;;;13.84;72.02;101666.09;5054841;28;20083;-79
2023/06/08 05:13:54;;;;;;;11.10;6.18;;;;;;;13.91;71.95;101662.44;5045065;28;20031;-80
2023/06/08 05:16:20;;;;;;;10.27;6.15;;;;;;;13.99;71.48;101668.31;5057710;28;20391;-79
2023/06/08 05:18:45;;;;;;;10.38;6.05;;;;;;;14.06;71.38;101672.47;5058405;28;20025;-79
2023/06/08 05:21:10;;;;;;;10.85;6.15;;;;;;;14.14;71.48;101667.03;5051626;28;20033;-79
2023/06/08 05:23:36;;;;;;;12.93;5.85;;;;;;;14.22;71.03;101666.81;5052892;28;20060;-79
2023/06/08 05:26:01;;;;;;;10.80;5.97;;;;;;;14.28;71.31;101664.03;5060432;28;20394;-79
2023/06/08 05:28:26;;;;;;;10.75;6.15;;;;;;;14.34;70.62;101666.50;5065444;28;20028;-79
2023/06/08 05:30:52;;;;;;;11.45;6.13;;;;;;;14.39;70.16;101659.34;5053949;28;20025;-79
2023/06/08 05:33:17;;;;;;;10.48;6.45;;;;;;;14.41;70.41;101654.94;5064551;28;20020;-79
2023/06/08 05:35:42;;;;;;;13.13;6.20;;;;;;;14.49;70.43;101656.47;5060295;28;20028;-79
2023/06/08 05:38:07;;;;;;;11.55;6.30;;;;;;;14.54;70.54;101659.81;5058404;28;20032;-79
2023/06/08 05:40:34;;;;;;;13.00;6.18;;;;;;;14.56;70.49;101655.38;5059672;28;20060;-79
2023/06/08 05:42:59;;;;;;;9.95;6.50;;;;;;;14.60;70.58;101657.00;5056996;28;20029;-79
2023/06/08 05:45:25;;;;;;;10.90;6.35;;;;;;;14.63;69.96;101659.56;5073901;28;20028;-79
2023/06/08 05:47:51;;;;;;;10.98;6.28;;;;;;;14.67;69.79;101661.19;5057834;28;20295;-79
2023/06/08 05:50:16;;;;;;;10.55;6.22;;;;;;;14.69;69.82;101651.53;5060838;28;20567;-80
2023/06/08 05:52:41;;;;;;;9.73;6.30;;;;;;;14.73;69.49;101657.56;5058127;28;20032;-79
2023/06/08 05:55:07;;;;;;;12.82;6.15;;;;;;;14.77;69.72;101647.81;5055160;28;20107;-80
2023/06/08 05:57:32;;;;;;;9.77;5.88;;;;;;;14.80;69.49;101655.59;5061509;28;20441;-79
2023/06/08 05:59:57;;;;;;;9.52;6.13;;;;;;;14.85;69.55;101656.31;5054926;28;20071;-79
2023/06/08 06:02:23;;;;;;;10.23;6.32;;;;;;;14.86;69.48;101653.66;5059860;28;20407;-80
2023/06/08 06:04:48;;;;;;;12.40;6.05;;;;;;;14.92;69.59;101652.59;5059673;28;20035;-79
2023/06/08 06:07:13;;;;;;;11.77;6.70;;;;;;;14.99;69.97;101653.25;5059489;28;20017;-79
2023/06/08 06:09:39;;;;;;;10.57;5.88;;;;;;;15.04;70.24;101656.59;5056327;28;20048;-79
2023/06/08 06:12:07;;;;;;;9.43;6.20;;;;;;;15.07;70.11;101655.63;5054796;28;20120;-79
2023/06/08 06:14:37;;;;;;;9.68;6.65;;;;;;;15.13;69.16;101652.84;5048725;28;20074;-79
2023/06/08 06:17:03;;;;;;;13.63;7.07;;;;;;;15.14;68.84;101652.78;5073000;28;20032;-79
2023/06/08 06:19:33;;;;;;;12.10;6.55;;;;;;;15.19;69.28;101660.50;5057474;28;20027;-79
2023/06/08 06:21:58;;;;;;;10.65;6.63;;;;;;;15.24;69.75;101657.72;5053972;28;20040;-79
2023/06/08 06:24:23;;;;;;;10.63;6.43;;;;;;;15.30;70.18;101662.75;5065560;28;20031;-79
2023/06/08 06:26:48;;;;;;;10.95;6.05;;;;;;;15.35;69.07;101654.78;5055120;28;20055;-80
2023/06/08 06:29:14;;;;;;;13.75;7.03;;;;;;;15.37;69.27;101655.56;5054273;28;20024;-82
2023/06/08 06:31:39;;;;;;;9.75;6.38;;;;;;;15.42;68.74;101651.88;5065824;28;20025;-79
2023/06/08 06:34:04;;;;;;;12.68;7.13;;;;;;;15.46;68.68;101652.63;5058130;28;20467;-79
2023/06/08 06:36:30;;;;;;;10.88;6.38;;;;;;;15.51;69.15;101666.47;5057109;28;20047;-79
2023/06/08 06:38:55;;;;;;;10.00;6.72;;;;;;;15.55;67.52;101656.72;5054235;28;20090;-79
2023/06/08 06:41:20;;;;;;;10.55;6.78;;;;;;;15.58;68.46;101665.34;5062435;28;20032;-79
2023/06/08 06:43:46;;;;;;;12.40;7.03;;;;;;;15.62;69.30;101651.22;5061931;28;20020;-80
2023/06/08 06:46:12;;;;;;;10.80;6.28;;;;;;;15.69;68.94;101661.50;5061869;28;20078;-79
2023/06/08 06:48:37;;;;;;;11.85;7.38;;;;;;;15.73;67.95;101655.22;5058545;28;20025;-80
2023/06/08 06:51:02;;;;;;;10.63;6.93;;;;;;;15.78;68.88;101655.94;5064526;28;20043;-81
2023/06/08 06:53:28;;;;;;;13.20;7.32;;;;;;;15.84;68.15;101657.47;5072299;28;20020;-79
2023/06/08 06:55:53;;;;;;;12.30;7.22;;;;;;;15.90;68.04;101663.41;5064534;28;20052;-79
2023/06/08 06:58:20;;;;;;;12.32;6.90;;;;;;;15.94;67.78;101661.53;5057535;28;20033;-79
2023/06/08 07:00:45;;;;;;;14.00;7.28;;;;;;;15.99;67.35;101662.22;5055626;28;20029;-79
2023/06/08 07:03:11;;;;;;;11.52;6.95;;;;;;;16.05;67.18;101666.41;5054862;28;20017;-79
2023/06/08 07:05:37;;;;;;;12.68;7.30;;;;;;;16.10;67.87;101661.84;5061058;28;20059;-79
2023/06/08 07:08:02;;;;;;;12.48;6.53;;;;;;;16.15;68.21;101654.66;5067330;28;20647;-79
2023/06/08 07:10:28;;;;;;;10.90;6.95;;;;;;;16.20;68.16;101659.75;5068465;28;20131;-79
2023/06/08 07:12:53;;;;;;;11.55;7.53;;;;;;;16.26;67.51;101656.03;5056480;28;20047;-80
2023/06/08 07:15:18;;;;;;;11.50;7.40;;;;;;;16.31;67.34;101656.72;5058524;28;20119;-79
2023/06/08 07:17:45;;;;;;;14.82;7.72;;;;;;;16.35;66.85;101663.59;5057648;28;20056;-80
2023/06/08 07:20:10;;;;;;;11.23;6.90;;;;;;;16.39;67.37;101668.66;5061461;28;20025;-80
2023/06/08 07:22:36;;;;;;;12.65;6.78;;;;;;;16.39;66.84;101663.41;5066831;28;20606;-79
2023/06/08 07:25:02;;;;;;;12.80;7.40;;;;;;;16.41;67.76;101668.59;5069014;28;20291;-79
2023/06/08 07:27:28;;;;;;;10.43;6.97;;;;;;;16.45;67.91;101667.56;5042646;28;20021;-80
2023/06/08 07:29:55;;;;;;;12.05;7.10;;;;;;;16.51;67.06;101666.47;5055976;28;20027;-80
2023/06/08 07:32:20;;;;;;;10.15;6.40;;;;;;;16.56;67.23;101666.34;5047147;28;20067;-79
2023/06/08 07:34:47;;;;;;;11.13;7.50;;;;;;;16.60;66.76;101662.66;5050813;28;20044;-79
2023/06/08 07:37:12;;;;;;;12.52;7.32;;;;;;;16.65;66.69;101669.44;5062615;28;20542;-79
2023/06/08 07:39:38;;;;;;;14.55;8.25;;;;;;;16.68;67.50;101671.09;5059337;28;20032;-80
2023/06/08 07:42:03;;;;;;;12.98;7.93;;;;;;;16.74;67.95;101670.84;5054853;28;20021;-80
2023/06/08 07:44:28;;;;;;;10.95;7.72;;;;;;;16.81;66.76;101666.25;5042579;28;20036;-79
2023/06/08 07:46:54;;;;;;;13.00;7.43;;;;;;;16.88;66.94;101672.13;5063978;28;20106;-79
2023/06/08 07:49:19;;;;;;;11.25;7.10;;;;;;;16.92;67.28;101658.78;5060482;28;20098;-80
2023/06/08 07:51:46;;;;;;;11.85;7.30;;;;;;;16.94;67.33;101656.09;5059491;28;20082;-79
2023/06/08 07:54:12;;;;;;;12.80;8.10;;;;;;;16.96;65.55;101655.16;5058760;28;20064;-80
2023/06/08 07:56:37;;;;;;;11.85;7.38;;;;;;;17.03;67.63;101650.50;5059613;28;20033;-80
2023/06/08 07:59:02;;;;;;;13.00;7.65;;;;;;;17.07;65.23;101645.97;5057812;28;20029;-79
2023/06/08 08:01:28;;;;;;;11.23;7.00;;;;;;;17.13;67.50;101646.56;5058435;28;20025;-79
2023/06/08 08:03:53;;;;;;;12.75;7.50;;;;;;;17.19;65.78;101647.25;5061481;28;20025;-80
2023/06/08 08:06:19;;;;;;;10.68;7.25;;;;;;;17.24;66.03;101647.94;5057536;28;20029;-80
2023/06/08 08:08:44;;;;;;;11.70;7.30;;;;;;;17.33;66.80;101644.06;5060791;28;20031;-80
2023/06/08 08:11:09;;;;;;;10.70;7.35;;;;;;;17.37;65.36;101643.88;5059078;28;20443;-80
2023/06/08 08:13:35;;;;;;;11.32;7.45;;;;;;;17.43;66.85;101643.59;5061846;28;20487;-80
2023/06/08 08:16:00;;;;;;;11.88;7.30;;;;;;;17.50;65.74;101649.50;5063353;28;20025;-80
2023/06/08 08:18:25;;;;;;;12.70;7.35;;;;;;;17.60;67.34;101655.19;5054609;28;20107;-79
2023/06/08 08:20:50;;;;;;;12.07;7.65;;;;;;;17.67;65.89;101651.38;5062765;28;20378;-80
2023/06/08 08:23:16;;;;;;;11.35;7.10;;;;;;;17.73;65.48;101647.63;5061643;28;20056;-81
2023/06/08 08:25:41;;;;;;;12.73;7.07;;;;;;;17.80;65.36;101653.47;5057269;28;20033;-81
2023/06/08 08:28:07;;;;;;;10.27;6.82;;;;;;;17.84;64.69;101655.06;5055213;28;21404;-80
2023/06/08 08:30:32;;;;;;;10.85;6.60;;;;;;;17.86;64.61;101650.59;5058073;28;20028;-80
2023/06/08 08:32:57;;;;;;;8.82;6.43;;;;;;;17.90;65.45;101657.44;5059957;28;20032;-80
2023/06/08 08:35:28;;;;;;;9.80;6.40;;;;;;;17.95;64.46;101657.22;5060570;28;20070;-80
2023/06/08 08:37:54;;;;;;;11.18;6.72;;;;;;;17.98;64.32;101654.50;5053205;28;20028;-80
2023/06/08 08:40:19;;;;;;;10.95;7.10;;;;;;;18.03;64.83;101648.09;5052698;28;20028;-81
2023/06/08 08:42:48;;;;;;;10.48;6.38;;;;;;;18.08;65.43;101644.41;5058229;28;20020;-81
2023/06/08 08:45:15;;;;;;;9.75;6.78;;;;;;;18.14;64.72;101646.75;5060708;28;20029;-81
2023/06/08 08:47:41;;;;;;;9.95;6.22;;;;;;;18.21;64.58;101645.56;5054645;28;20025;-81
2023/06/08 08:50:09;;;;;;;6.85;5.28;;;;;;;18.26;64.59;101640.97;5058621;28;20024;-79
2023/06/08 08:52:39;;;;;;;7.68;5.22;;;;;;;18.30;63.45;101639.88;5060364;28;20037;-80
2023/06/08 08:55:04;;;;;;;8.95;5.85;;;;;;;18.38;63.92;101641.31;5064234;28;20032;-80
2023/06/08 08:57:31;;;;;;;11.50;5.95;;;;;;;18.45;63.94;101633.06;5055537;28;20095;-81
2023/06/08 08:59:56;;;;;;;8.63;6.10;;;;;;;18.55;63.48;101633.47;5060863;28;20031;-80
2023/06/08 09:02:23;;;;;;;10.15;6.07;;;;;;;18.61;64.25;101634.97;5059559;28;20020;-81
2023/06/08 09:04:49;;;;;;;10.02;6.88;;;;;;;18.70;63.78;101631.03;5056539;28;20464;-81
2023/06/08 09:07:21;;;;;;;9.52;6.38;;;;;;;18.75;63.25;101629.06;5058540;28;20046;-80
2023/06/08 09:10:22;;;;;;;10.93;5.82;;;;;;;18.82;63.74;101627.81;5064924;28;20174;-81
2023/06/08 09:12:49;;;;;;;9.33;5.80;;;;;;;18.88;62.75;101624.03;5058590;28;20028;-80
2023/06/08 09:15:32;;;;;;;10.50;6.10;;;;;;;18.93;62.07;101628.16;5061752;28;20038;-80
2023/06/08 09:17:59;;;;;;;9.82;6.45;;;;;;;19.02;62.48;101628.66;5058550;28;20515;-80
2023/06/08 09:20:31;;;;;;;8.48;6.10;;;;;;;19.05;61.83;101626.72;5054304;28;20033;-80
2023/06/08 09:23:15;;;;;;;8.43;6.38;;;;;;;19.09;62.42;101628.28;5058137;28;20060;-80
2023/06/08 09:25:41;;;;;;;10.00;6.47;;;;;;;19.14;61.38;101619.31;5048987;28;20085;-81
2023/06/08 09:28:15;;;;;;;9.10;5.93;;;;;;;19.19;61.36;101630.50;5060617;28;20157;-80
2023/06/08 09:30:41;;;;;;;7.53;5.82;;;;;;;19.24;61.78;101625.81;5046069;28;20063;-80
2023/06/08 09:33:29;;;;;;;8.75;5.78;;;;;;;19.35;61.77;101617.38;5061838;28;20571;-81
2023/06/08 09:35:57;;;;;;;12.23;6.57;;;;;;;19.42;61.67;101619.63;5058427;28;20349;-81
2023/06/08 09:38:25;;;;;;;8.88;6.13;;;;;;;19.54;61.33;101619.94;5059437;28;20031;-80
2023/06/08 09:40:51;;;;;;;9.98;6.35;;;;;;;19.64;60.93;101620.31;5057069;28;20029;-80
2023/06/08 09:43:33;;;;;;;9.95;5.93;;;;;;;19.71;61.03;101619.94;5061036;28;20028;-80
2023/06/08 09:45:59;;;;;;;8.93;6.03;;;;;;;19.74;60.43;101628.59;5059166;28;20028;-80
2023/06/08 09:48:24;;;;;;;9.90;6.30;;;;;;;19.73;59.10;101617.19;5055982;28;20020;-80
2023/06/08 09:50:55;;;;;;;10.05;6.20;;;;;;;19.72;60.05;101626.03;5055454;28;20762;-80
2023/06/08 09:53:20;;;;;;;12.00;7.43;;;;;;;19.72;60.31;101626.03;5057187;28;20020;-80
2023/06/08 09:55:46;;;;;;;8.52;6.03;;;;;;;19.71;59.80;101624.34;5058215;28;20825;-80
2023/06/08 09:58:12;;;;;;;9.32;6.18;;;;;;;19.68;59.01;101620.09;5054267;28;20043;-80
2023/06/08 10:00:39;;;;;;;9.43;6.63;;;;;;;19.64;58.51;101621.16;5056021;28;20459;-80
2023/06/08 10:03:38;;;;;;;11.90;6.85;;;;;;;19.63;58.07;101621.25;5052424;28;20033;-81
2023/06/08 10:06:05;;;;;;;8.48;5.97;;;;;;;19.64;57.97;101622.97;5053714;28;20090;-81
2023/06/08 10:08:32;;;;;;;11.00;6.32;;;;;;;19.64;57.56;101623.81;5057565;28;20095;-81
2023/06/08 10:10:57;;;;;;;8.73;5.93;;;;;;;19.65;58.03;101620.22;5059728;28;20081;-80
2023/06/08 10:13:23;;;;;;;9.52;5.85;;;;;;;19.66;57.91;101615.78;5055689;28;20225;-80
2023/06/08 10:15:49;;;;;;;9.20;5.85;;;;;;;19.69;59.10;101618.28;5056216;28;20028;-80
2023/06/08 10:18:14;;;;;;;10.18;6.20;;;;;;;19.74;58.82;101608.34;5058351;28;20379;-80
2023/06/08 10:20:40;;;;;;;9.23;5.80;;;;;;;19.79;57.25;101610.72;5052710;28;20028;-81
2023/06/08 10:23:06;;;;;;;9.77;6.65;;;;;;;19.83;57.21;101610.47;5060043;28;20081;-81
2023/06/08 10:25:33;;;;;;;11.63;5.70;;;;;;;19.84;56.17;101614.84;5058962;28;20425;-81
2023/06/08 10:28:07;;;;;;;8.35;5.95;;;;;;;19.84;57.31;101614.84;5059281;28;20033;-80
2023/06/08 10:30:41;;;;;;;9.73;5.70;;;;;;;19.86;56.29;101610.31;5063936;28;20042;-81
2023/06/08 10:33:11;;;;;;;7.75;5.05;;;;;;;19.86;56.55;101612.97;5048101;28;20031;-80
2023/06/08 10:35:37;;;;;;;8.88;5.63;;;;;;;19.85;55.88;101600.69;5058588;28;20025;-80
2023/06/08 10:38:16;;;;;;;9.30;5.50;;;;;;;19.89;57.04;101600.56;5062743;28;20039;-80
2023/06/08 10:40:46;;;;;;;8.20;5.80;;;;;;;19.89;57.00;101598.81;5054388;28;20325;-81
2023/06/08 10:43:12;;;;;;;8.57;5.57;;;;;;;19.93;57.01;101602.13;5055703;28;20085;-81
2023/06/08 10:45:40;;;;;;;10.80;6.20;;;;;;;19.97;56.24;101593.94;5060380;28;20023;-81
2023/06/08 10:48:10;;;;;;;8.43;5.20;;;;;;;20.04;57.83;101596.28;5059604;28;20107;-81
2023/06/08 10:50:39;;;;;;;9.18;6.00;;;;;;;20.10;56.14;101593.28;5056722;28;20119;-80
2023/06/08 10:53:05;;;;;;;9.23;5.50;;;;;;;20.16;58.90;101588.50;5059225;28;20036;-80
2023/06/08 10:55:30;;;;;;;9.27;6.07;;;;;;;20.24;59.09;101590.72;5056317;28;20017;-80
2023/06/08 10:58:20;;;;;;;10.55;5.68;;;;;;;20.32;57.65;101577.13;5055959;28;20044;-80
2023/06/08 11:00:50;;;;;;;8.38;5.35;;;;;;;20.31;56.23;101580.72;5059017;28;20546;-81
2023/06/08 11:03:18;;;;;;;7.85;5.25;;;;;;;20.28;55.67;101580.88;5057089;28;20028;-81
2023/06/08 11:05:45;;;;;;;8.02;5.05;;;;;;;20.22;55.90;101579.44;5057507;28;20052;-81
2023/06/08 11:08:11;;;;;;;9.93;5.78;;;;;;;20.17;55.81;101574.38;5055817;28;20036;-81
2023/06/08 11:10:42;;;;;;;8.90;5.93;;;;;;;20.16;56.54;101567.38;5057642;28;20044;-80
2023/06/08 11:13:12;;;;;;;8.23;5.40;;;;;;;20.21;58.40;101563.63;5044067;28;20038;-80
2023/06/08 11:15:40;;;;;;;10.88;6.18;;;;;;;20.25;56.46;101565.19;5056365;28;20024;-80
2023/06/08 11:18:08;;;;;;;8.93;6.07;;;;;;;20.25;57.27;101559.91;5041482;28;20024;-80
2023/06/08 11:20:37;;;;;;;9.85;6.05;;;;;;;20.29;58.01;101556.16;5057348;28;20889;-80
2023/06/08 11:23:05;;;;;;;11.48;6.70;;;;;;;20.28;55.44;101554.44;5043244;28;20039;-80